createdAt,value
2023-05-03T00:02:12.244Z,100198.63
2023-05-03T00:04:46.407Z,100196.69
2023-05-03T00:07:19.603Z,100193.53
2023-05-03T00:09:52.359Z,100192.59
2023-05-03T00:12:26.812Z,100195.00
2023-05-03T00:14:59.612Z,100195.59
2023-05-03T00:17:32.467Z,100199.19
2023-05-03T00:20:05.734Z,100190.94
2023-05-03T00:22:38.760Z,100195.38
2023-05-03T00:25:11.473Z,100187.69
2023-05-03T00:27:45.591Z,100186.28
2023-05-03T00:30:19.613Z,100193.66
2023-05-03T00:32:52.817Z,100182.69
2023-05-03T00:35:25.605Z,100185.38
2023-05-03T00:37:58.278Z,100178.06
2023-05-03T00:40:31.175Z,100183.44
2023-05-03T00:43:05.256Z,100182.44
2023-05-03T00:45:38.361Z,100182.00
2023-05-03T00:48:11.744Z,100178.03
2023-05-03T00:50:44.801Z,100182.16
2023-05-03T00:53:17.848Z,100185.69
2023-05-03T00:55:53.015Z,100191.44
2023-05-03T00:58:27.088Z,100189.97
2023-05-03T01:01:00.131Z,100192.75
2023-05-03T01:03:33.271Z,100179.06
2023-05-03T01:06:09.756Z,100167.94
2023-05-03T01:08:45.559Z,100151.50
2023-05-03T01:11:22.984Z,100143.06
2023-05-03T01:13:58.412Z,100150.69
2023-05-03T01:16:36.405Z,100152.06
2023-05-03T01:19:15.262Z,100151.50
2023-05-03T01:21:52.365Z,100153.22
2023-05-03T01:24:27.449Z,100148.41
2023-05-03T01:27:02.275Z,100154.63
2023-05-03T01:29:35.474Z,100156.88
2023-05-03T01:32:10.364Z,100162.19
2023-05-03T01:34:46.929Z,100157.59
2023-05-03T01:37:19.679Z,100130.81
2023-05-03T01:39:55.282Z,100154.91
2023-05-03T01:42:30.812Z,100151.03
2023-05-03T01:45:05.276Z,100144.75
2023-05-03T01:47:38.289Z,100148.75
2023-05-03T01:50:11.653Z,100147.63
2023-05-03T01:52:45.307Z,100144.81
2023-05-03T01:55:18.152Z,100162.88
2023-05-03T01:57:52.244Z,100144.84
2023-05-03T02:00:25.021Z,100148.03
2023-05-03T02:02:58.481Z,100141.97
2023-05-03T02:05:31.471Z,100146.59
2023-05-03T02:08:04.272Z,100148.34
2023-05-03T02:10:37.031Z,100147.00
2023-05-03T02:13:11.077Z,100141.94
2023-05-03T02:15:44.460Z,100147.56
2023-05-03T02:18:18.562Z,100150.13
2023-05-03T02:20:51.422Z,100153.78
2023-05-03T02:23:24.212Z,100145.00
2023-05-03T02:25:56.988Z,100154.06
2023-05-03T02:28:32.088Z,100164.03
2023-05-03T02:31:06.345Z,100159.91
2023-05-03T02:33:39.536Z,100161.53
2023-05-03T02:36:13.207Z,100161.56
2023-05-03T02:38:46.067Z,100159.13
2023-05-03T02:41:19.125Z,100161.16
2023-05-03T02:43:53.511Z,100165.84
2023-05-03T02:46:26.568Z,100152.91
2023-05-03T02:48:59.660Z,100159.41
2023-05-03T02:51:33.124Z,100161.09
2023-05-03T02:54:05.899Z,100163.63
2023-05-03T02:56:38.721Z,100158.25
2023-05-03T02:59:12.988Z,100173.84
2023-05-03T03:01:47.070Z,100174.19
2023-05-03T03:04:19.882Z,100175.53
2023-05-03T03:06:53.573Z,100182.91
2023-05-03T03:09:26.610Z,100182.44
2023-05-03T03:11:59.751Z,100192.03
2023-05-03T03:14:34.178Z,100183.53
2023-05-03T03:17:09.942Z,100186.81
2023-05-03T03:19:42.681Z,100180.13
2023-05-03T03:22:17.812Z,100187.66
2023-05-03T03:24:50.974Z,100186.69
2023-05-03T03:27:24.183Z,100187.28
2023-05-03T03:29:58.223Z,100177.00
2023-05-03T03:32:31.392Z,100184.97
2023-05-03T03:35:04.564Z,100185.97
2023-05-03T03:37:37.450Z,100167.22
2023-05-03T03:40:11.499Z,100176.69
2023-05-03T03:42:44.509Z,100189.16
2023-05-03T03:45:18.982Z,100191.16
2023-05-03T03:47:53.426Z,100184.72
2023-05-03T03:50:26.605Z,100187.50
2023-05-03T03:52:59.378Z,100196.34
2023-05-03T03:55:32.360Z,100228.41
2023-05-03T03:58:05.041Z,100230.47
2023-05-03T04:00:39.443Z,100244.63
2023-05-03T04:03:12.255Z,100264.84
2023-05-03T04:05:45.966Z,100277.84
2023-05-03T04:08:18.700Z,100286.63
2023-05-03T04:10:51.795Z,100289.63
2023-05-03T04:13:24.598Z,100287.41
2023-05-03T04:15:58.856Z,100290.47
2023-05-03T04:18:31.966Z,100297.94
2023-05-03T04:21:04.974Z,100304.59
2023-05-03T04:23:38.587Z,100299.97
2023-05-03T04:26:23.567Z,100297.78
2023-05-03T04:29:03.949Z,100299.56
2023-05-03T04:31:38.064Z,100306.91
2023-05-03T04:34:15.005Z,100303.00
2023-05-03T04:36:49.126Z,100297.00
2023-05-03T04:39:22.145Z,100301.03
2023-05-03T04:41:55.209Z,100283.44
2023-05-03T04:44:27.945Z,100264.25
2023-05-03T04:47:02.821Z,100283.31
2023-05-03T04:49:35.758Z,100274.63
2023-05-03T04:52:10.316Z,100277.53
2023-05-03T04:54:43.085Z,100286.88
2023-05-03T04:57:16.132Z,100285.47
2023-05-03T04:59:50.034Z,100291.66
2023-05-03T05:02:24.814Z,100299.84
2023-05-03T05:04:57.642Z,100301.47
2023-05-03T05:07:30.718Z,100297.28
2023-05-03T05:10:03.949Z,100294.00
2023-05-03T05:12:37.070Z,100301.09
2023-05-03T05:15:10.280Z,100311.25
2023-05-03T05:17:45.012Z,100312.22
2023-05-03T05:20:18.974Z,100319.69
2023-05-03T05:22:51.990Z,100319.88
2023-05-03T05:25:24.847Z,100320.69
2023-05-03T05:27:57.929Z,100325.28
2023-05-03T05:30:31.529Z,100317.13
2023-05-03T05:33:06.283Z,100314.19
2023-05-03T05:35:39.480Z,100308.03
2023-05-03T05:38:12.455Z,100320.09
2023-05-03T05:40:45.405Z,100322.88
2023-05-03T05:43:18.145Z,100329.25
2023-05-03T05:45:51.242Z,100326.09
2023-05-03T05:48:25.488Z,100329.59
2023-05-03T05:50:58.235Z,100336.06
2023-05-03T05:53:31.219Z,100354.06
2023-05-03T05:56:04.037Z,100353.06
2023-05-03T05:58:38.255Z,100325.19
2023-05-03T06:01:11.208Z,100311.25
2023-05-03T06:03:45.666Z,100294.41
2023-05-03T06:06:18.596Z,100284.41
2023-05-03T06:08:51.863Z,100285.50
2023-05-03T06:11:24.740Z,100286.97
2023-05-03T06:13:57.806Z,100291.78
2023-05-03T06:16:31.048Z,100308.38
2023-05-03T06:19:05.652Z,100298.13
2023-05-03T06:21:38.869Z,100299.13
2023-05-03T06:24:11.552Z,100305.91
2023-05-03T06:26:44.408Z,100304.94
2023-05-03T06:29:17.099Z,100305.44
2023-05-03T06:31:50.258Z,100306.47
2023-05-03T06:34:24.678Z,100324.19
2023-05-03T06:36:57.429Z,100334.31
2023-05-03T06:39:30.157Z,100329.47
2023-05-03T06:42:03.201Z,100328.63
2023-05-03T06:44:36.257Z,100329.00
2023-05-03T06:47:09.255Z,100325.28
2023-05-03T06:49:43.494Z,100325.22
2023-05-03T06:52:16.398Z,100309.16
2023-05-03T06:54:49.372Z,100301.47
2023-05-03T06:57:22.888Z,100295.63
2023-05-03T06:59:55.602Z,100306.66
2023-05-03T07:02:29.160Z,100306.69
2023-05-03T07:05:03.360Z,100291.25
2023-05-03T07:07:36.568Z,100281.66
2023-05-03T07:10:09.718Z,100277.53
2023-05-03T07:12:42.648Z,100270.94
2023-05-03T07:15:15.646Z,100267.50
2023-05-03T07:17:48.561Z,100268.72
2023-05-03T07:20:22.840Z,100269.09
2023-05-03T07:22:55.853Z,100280.47
2023-05-03T07:25:28.684Z,100273.34
2023-05-03T07:28:01.591Z,100273.91
2023-05-03T07:30:34.299Z,100284.63
2023-05-03T07:33:07.237Z,100275.72
2023-05-03T07:35:41.544Z,100273.31
2023-05-03T07:38:14.300Z,100269.41
2023-05-03T07:40:47.658Z,100259.06
2023-05-03T07:43:23.670Z,100271.50
2023-05-03T07:45:56.531Z,100263.91
2023-05-03T07:48:29.304Z,100251.72
2023-05-03T07:51:04.641Z,100236.25
2023-05-03T07:53:39.980Z,100228.19
2023-05-03T07:56:13.248Z,100221.25
2023-05-03T07:58:48.639Z,100222.66
2023-05-03T08:01:23.953Z,100230.69
2023-05-03T08:03:58.722Z,100232.94
2023-05-03T08:06:35.505Z,100240.75
2023-05-03T08:09:09.022Z,100229.94
2023-05-03T08:11:44.144Z,100230.34
2023-05-03T08:14:17.397Z,100236.53
2023-05-03T08:16:50.415Z,100233.03
2023-05-03T08:19:23.303Z,100245.97
2023-05-03T08:21:58.360Z,100242.13
2023-05-03T08:24:31.128Z,100243.84
2023-05-03T08:27:03.785Z,100245.47
2023-05-03T08:29:37.663Z,100263.19
2023-05-03T08:32:10.857Z,100250.03
2023-05-03T08:34:44.304Z,100243.25
2023-05-03T08:37:18.939Z,100236.06
2023-05-03T08:39:52.256Z,100234.28
2023-05-03T08:42:25.871Z,100222.53
2023-05-03T08:44:58.789Z,100227.13
2023-05-03T08:47:35.809Z,100241.34
2023-05-03T08:50:09.957Z,100235.78
2023-05-03T08:52:44.536Z,100240.72
2023-05-03T08:55:17.622Z,100242.88
2023-05-03T08:57:50.411Z,100236.88
2023-05-03T09:00:29.068Z,100216.44
2023-05-03T09:03:01.898Z,100222.00
2023-05-03T09:05:38.745Z,100218.56
2023-05-03T09:08:14.634Z,100220.34
2023-05-03T09:10:47.326Z,100227.22
2023-05-03T09:13:20.360Z,100225.63
2023-05-03T09:15:57.154Z,100226.09
2023-05-03T09:18:30.688Z,100231.50
2023-05-03T09:21:03.642Z,100238.34
2023-05-03T09:23:37.906Z,100218.81
2023-05-03T09:26:13.347Z,100209.00
2023-05-03T09:28:46.181Z,100207.59
2023-05-03T09:31:19.039Z,100208.81
2023-05-03T09:33:53.514Z,100209.59
2023-05-03T09:36:27.680Z,100195.25
2023-05-03T09:39:17.002Z,100199.03
2023-05-03T09:41:50.272Z,100207.59
2023-05-03T09:44:41.350Z,100202.94
2023-05-03T09:47:14.127Z,100212.44
2023-05-03T09:49:47.210Z,100227.41
2023-05-03T09:52:23.292Z,100210.88
2023-05-03T09:54:57.566Z,100214.78
2023-05-03T09:57:30.817Z,100214.06
2023-05-03T10:00:04.782Z,100214.97
2023-05-03T10:02:38.056Z,100223.53
2023-05-03T10:05:12.745Z,100226.63
2023-05-03T10:07:45.886Z,100226.72
2023-05-03T10:10:21.260Z,100235.56
2023-05-03T10:12:54.646Z,100222.47
2023-05-03T10:15:29.138Z,100225.63
2023-05-03T10:18:03.583Z,100193.19
2023-05-03T10:20:41.354Z,100194.44
2023-05-03T10:23:15.120Z,100208.88
2023-05-03T10:26:22.588Z,100205.63
2023-05-03T10:28:57.356Z,100212.03
2023-05-03T10:31:45.159Z,100215.97
2023-05-03T10:34:21.260Z,100219.22
2023-05-03T10:36:54.558Z,100227.03
2023-05-03T10:39:28.653Z,100232.31
2023-05-03T10:42:03.582Z,100225.63
2023-05-03T10:44:40.269Z,100231.00
2023-05-03T10:47:14.166Z,100218.44
2023-05-03T10:49:47.457Z,100225.75
2023-05-03T10:52:50.047Z,100212.09
2023-05-03T10:55:24.794Z,100211.25
2023-05-03T10:57:59.360Z,100201.13
2023-05-03T11:00:37.112Z,100191.25
2023-05-03T11:03:33.721Z,100179.97
2023-05-03T11:06:06.999Z,100162.16
2023-05-03T11:08:40.332Z,100166.78
2023-05-03T11:11:13.306Z,100161.84
2023-05-03T11:13:46.314Z,100185.91
2023-05-03T11:16:21.438Z,100190.00
2023-05-03T11:18:54.995Z,100174.56
2023-05-03T11:21:27.926Z,100179.59
2023-05-03T11:24:10.977Z,100174.97
2023-05-03T11:26:44.118Z,100184.91
2023-05-03T11:29:17.708Z,100186.13
2023-05-03T11:31:52.888Z,100191.97
2023-05-03T11:34:25.759Z,100212.16
2023-05-03T11:36:59.805Z,100195.63
2023-05-03T11:39:33.469Z,100177.69
2023-05-03T11:42:07.171Z,100184.53
2023-05-03T11:44:40.000Z,100195.31
2023-05-03T11:47:14.347Z,100188.38
2023-05-03T11:49:52.498Z,100173.41
2023-05-03T11:52:28.548Z,100163.09
2023-05-03T11:55:01.576Z,100147.47
2023-05-03T11:57:34.569Z,100123.00
2023-05-03T12:00:17.438Z,100117.03
2023-05-03T12:02:51.961Z,100120.06
2023-05-03T12:05:25.020Z,100129.22
2023-05-03T12:07:58.715Z,100129.66
2023-05-03T12:10:33.407Z,100126.31
2023-05-03T12:13:08.975Z,100124.31
2023-05-03T12:15:43.793Z,100119.94
2023-05-03T12:21:29.992Z,100125.78
2023-05-03T12:23:51.777Z,100131.78
2023-05-03T12:26:25.789Z,100132.03
2023-05-03T12:29:00.470Z,100117.97
2023-05-03T12:31:39.270Z,100114.72
2023-05-03T12:34:32.723Z,100111.81
2023-05-03T12:37:11.024Z,100108.19
2023-05-03T12:39:45.971Z,100099.50
2023-05-03T12:42:24.053Z,100090.28
2023-05-03T12:44:58.313Z,100090.63
2023-05-03T12:47:34.214Z,100075.84
2023-05-03T12:50:12.711Z,100072.84
2023-05-03T12:52:45.929Z,100074.03
2023-05-03T12:55:19.299Z,100069.44
2023-05-03T12:58:10.311Z,100062.56
2023-05-03T13:01:22.061Z,100054.66
2023-05-03T13:03:43.692Z,100050.72
2023-05-03T13:06:19.382Z,100050.75
2023-05-03T13:08:52.512Z,100046.25
2023-05-03T13:11:26.509Z,100036.78
2023-05-03T13:13:59.604Z,100036.41
2023-05-03T13:16:33.744Z,100020.34
2023-05-03T13:19:07.006Z,100024.84
2023-05-03T13:21:41.162Z,100013.72
2023-05-03T13:24:19.772Z,100018.09
2023-05-03T13:26:53.093Z,100016.25
2023-05-03T13:29:26.903Z,100014.88
2023-05-03T13:32:00.155Z,100013.59
2023-05-03T13:34:33.054Z,100005.00
2023-05-03T13:37:07.643Z,99998.16
2023-05-03T13:39:40.814Z,99992.09
2023-05-03T13:42:13.697Z,99986.09
2023-05-03T13:44:47.875Z,99976.09
2023-05-03T13:47:20.938Z,99964.00
2023-05-03T13:49:56.254Z,99970.63
2023-05-03T13:52:30.301Z,99969.63
2023-05-03T13:55:04.387Z,99962.09
2023-05-03T13:57:37.377Z,99971.81
2023-05-03T14:00:10.735Z,99968.97
2023-05-03T14:02:43.634Z,99964.91
2023-05-03T14:05:16.734Z,99968.94
2023-05-03T14:07:51.152Z,99969.09
2023-05-03T14:10:24.300Z,99962.25
2023-05-03T14:12:58.241Z,99960.06
2023-05-03T14:15:31.357Z,99961.44
2023-05-03T14:18:05.915Z,99954.75
2023-05-03T14:20:39.454Z,99962.63
2023-05-03T14:23:13.908Z,99957.75
2023-05-03T14:25:46.769Z,99964.13
2023-05-03T14:28:20.370Z,99955.47
2023-05-03T14:30:53.666Z,99950.28
2023-05-03T14:33:26.663Z,99953.53
2023-05-03T14:35:59.673Z,99948.63
2023-05-03T14:38:33.940Z,99949.63
2023-05-03T14:41:07.901Z,99937.88
2023-05-03T14:43:40.897Z,99940.00
2023-05-03T14:46:13.811Z,99933.09
2023-05-03T14:48:46.842Z,99931.09
2023-05-03T14:51:20.228Z,99928.25
2023-05-03T14:53:55.427Z,99927.59
2023-05-03T14:56:28.682Z,99931.16
2023-05-03T14:59:01.979Z,99921.84
2023-05-03T15:01:36.218Z,99919.16
2023-05-03T15:04:13.589Z,99924.03
2023-05-03T15:06:46.887Z,99923.91
2023-05-03T15:09:21.147Z,99919.69
2023-05-03T15:11:54.134Z,99919.22
2023-05-03T15:14:27.210Z,99911.97
2023-05-03T15:17:00.355Z,99910.09
2023-05-03T15:19:33.414Z,99915.31
2023-05-03T15:22:06.638Z,99914.00
2023-05-03T15:24:41.498Z,99904.25
2023-05-03T15:27:14.508Z,99905.72
2023-05-03T15:29:47.446Z,99902.19
2023-05-03T15:32:20.495Z,99895.16
2023-05-03T15:34:53.632Z,99893.09
2023-05-03T15:37:36.054Z,99887.69
2023-05-03T15:40:14.216Z,99884.34
2023-05-03T15:42:47.280Z,99885.88
2023-05-03T15:45:23.481Z,99886.88
2023-05-03T15:47:57.173Z,99886.03
2023-05-03T15:50:31.128Z,99887.75
2023-05-03T15:53:04.193Z,99897.84
2023-05-03T15:55:38.832Z,99897.44
2023-05-03T15:58:12.241Z,99894.38
2023-05-03T16:00:45.292Z,99905.47
2023-05-03T16:03:18.644Z,99893.56
2023-05-03T16:05:51.628Z,99890.03
2023-05-03T16:08:27.593Z,99898.25
2023-05-03T16:11:02.052Z,99906.84
2023-05-03T16:13:35.311Z,99910.53
2023-05-03T16:16:08.516Z,99914.75
2023-05-03T16:18:41.687Z,99912.16
2023-05-03T16:21:19.178Z,99911.69
2023-05-03T16:23:55.626Z,99904.63
2023-05-03T16:26:31.885Z,99896.69
2023-05-03T16:29:05.879Z,99893.44
2023-05-03T16:31:38.870Z,99881.03
2023-05-03T16:34:12.148Z,99881.53
2023-05-03T16:36:45.641Z,99888.94
2023-05-03T16:39:19.906Z,99891.72
2023-05-03T16:41:54.158Z,99884.63
2023-05-03T16:44:27.142Z,99878.47
2023-05-03T16:47:00.474Z,99878.09
2023-05-03T16:49:34.304Z,99885.72
2023-05-03T16:52:10.092Z,99904.31
2023-05-03T16:54:43.591Z,99922.44
2023-05-03T16:57:17.930Z,99950.31
2023-05-03T16:59:51.065Z,99953.50
2023-05-03T17:02:27.301Z,99956.28
2023-05-03T17:05:01.154Z,99949.50
2023-05-03T17:07:34.405Z,99935.38
2023-05-03T17:10:10.963Z,99943.56
2023-05-03T17:12:48.082Z,99949.34
2023-05-03T17:15:21.452Z,99950.78
2023-05-03T17:18:01.330Z,99946.13
2023-05-03T17:20:37.358Z,99922.53
2023-05-03T17:23:12.795Z,99919.63
2023-05-03T17:25:48.159Z,99929.31
2023-05-03T17:28:22.500Z,99943.66
2023-05-03T17:30:58.617Z,99938.75
2023-05-03T17:33:31.591Z,99951.63
2023-05-03T17:36:08.769Z,99956.44
2023-05-03T17:38:45.640Z,99946.69
2023-05-03T17:41:23.599Z,99941.63
2023-05-03T17:43:58.531Z,99941.19
2023-05-03T17:46:33.073Z,99953.72
2023-05-03T17:49:08.282Z,99957.59
2023-05-03T17:51:43.504Z,99962.34
2023-05-03T17:54:22.636Z,99970.09
2023-05-03T17:56:55.704Z,99980.53
2023-05-03T17:59:32.330Z,99980.44
2023-05-03T18:02:05.766Z,99984.91
2023-05-03T18:04:39.966Z,99991.38
2023-05-03T18:07:14.057Z,99987.50
2023-05-03T18:09:47.033Z,99992.44
2023-05-03T18:12:26.062Z,100003.84
2023-05-03T18:15:00.826Z,100022.19
2023-05-03T18:17:37.264Z,100017.81
2023-05-03T18:20:14.395Z,100009.38
2023-05-03T18:22:53.333Z,100014.19
2023-05-03T18:25:26.701Z,100026.47
2023-05-03T18:27:59.681Z,100055.31
2023-05-03T18:30:35.194Z,100064.22
2023-05-03T18:33:08.285Z,100071.28
2023-05-03T18:35:41.517Z,100076.53
2023-05-03T18:38:16.508Z,100086.72
2023-05-03T18:40:51.799Z,100097.59
2023-05-03T18:43:28.816Z,100088.28
2023-05-03T18:46:05.735Z,100093.78
2023-05-03T18:48:41.170Z,100099.03
2023-05-03T18:51:14.577Z,100103.09
2023-05-03T18:53:55.023Z,100115.06
2023-05-03T18:56:30.493Z,100104.59
2023-05-03T18:59:06.585Z,100101.22
2023-05-03T19:01:43.050Z,100084.75
2023-05-03T19:04:16.188Z,100066.72
2023-05-03T19:06:52.500Z,100062.56
2023-05-03T19:09:25.678Z,100069.75
2023-05-03T19:12:00.767Z,100066.97
2023-05-03T19:14:34.523Z,100084.88
2023-05-03T19:17:12.765Z,100080.78
2023-05-03T19:19:54.347Z,100078.09
2023-05-03T19:22:27.581Z,100058.38
2023-05-03T19:25:01.801Z,100059.78
2023-05-03T19:27:36.892Z,100063.72
2023-05-03T19:30:13.146Z,100066.66
2023-05-03T19:32:50.414Z,100057.47
2023-05-03T19:35:24.430Z,100055.19
2023-05-03T19:38:06.890Z,100040.28
2023-05-03T19:40:43.095Z,100044.19
2023-05-03T19:43:17.392Z,100051.97
2023-05-03T19:45:53.200Z,100048.63
2023-05-03T19:48:30.500Z,100052.69
2023-05-03T19:51:05.515Z,100057.63
2023-05-03T19:53:39.150Z,100055.00
2023-05-03T19:56:13.566Z,100065.53
2023-05-03T19:58:46.643Z,100075.28
2023-05-03T20:01:22.464Z,100087.72
2023-05-03T20:03:57.468Z,100091.91
2023-05-03T20:06:33.801Z,100090.81
2023-05-03T20:09:06.874Z,100098.03
2023-05-03T20:11:42.224Z,100094.16
2023-05-03T20:14:18.033Z,100091.75
2023-05-03T20:16:52.003Z,100092.41
2023-05-03T20:19:28.898Z,100100.09
2023-05-03T20:22:04.789Z,100093.84
2023-05-03T20:27:27.462Z,100090.47
2023-05-03T20:30:04.222Z,100108.25
2023-05-03T20:32:41.000Z,100110.94
2023-05-03T20:35:15.459Z,100109.88
2023-05-03T20:37:48.419Z,100114.53
2023-05-03T20:40:23.260Z,100105.56
2023-05-03T20:42:56.435Z,100116.19
2023-05-03T20:45:32.504Z,100117.50
2023-05-03T20:48:05.747Z,100116.16
2023-05-03T20:50:40.393Z,100121.72
2023-05-03T20:53:13.499Z,100115.16
2023-05-03T20:55:46.448Z,100102.53
2023-05-03T20:58:22.361Z,100090.53
2023-05-03T21:00:57.691Z,100091.56
2023-05-03T21:03:31.427Z,100074.06
2023-05-03T21:06:07.095Z,100057.25
2023-05-03T21:08:40.228Z,100062.59
2023-05-03T21:11:14.983Z,100068.34
2023-05-03T21:13:49.050Z,100051.88
2023-05-03T21:16:23.763Z,100046.00
2023-05-03T21:18:59.656Z,100030.44
2023-05-03T21:21:36.274Z,100023.06
2023-05-03T21:24:14.279Z,100009.31
2023-05-03T21:26:49.060Z,100022.19
2023-05-03T21:29:22.194Z,100039.09
2023-05-03T21:31:57.001Z,100046.38
2023-05-03T21:34:33.520Z,100050.19
2023-05-03T21:37:09.146Z,100052.38
2023-05-03T21:39:57.773Z,100060.72
2023-05-03T21:42:34.376Z,100054.53
2023-05-03T21:45:10.849Z,100059.38
2023-05-03T21:47:43.858Z,100054.66
2023-05-03T21:50:19.376Z,100051.13
2023-05-03T21:52:53.786Z,100057.06
2023-05-03T21:55:29.697Z,100055.94
2023-05-03T21:58:02.654Z,100057.69
2023-05-03T22:00:36.456Z,100046.56
2023-05-03T22:03:09.995Z,100049.06
2023-05-03T22:05:47.235Z,100047.88
2023-05-03T22:08:21.947Z,100054.34
2023-05-03T22:10:56.320Z,100049.31
2023-05-03T22:13:30.484Z,100054.41
2023-05-03T22:16:06.013Z,100045.22
2023-05-03T22:18:38.950Z,100047.72
2023-05-03T22:21:11.981Z,100046.84
2023-05-03T22:23:46.407Z,100032.69
2023-05-03T22:26:19.533Z,100031.38
2023-05-03T22:28:52.450Z,100028.53
2023-05-03T22:31:26.947Z,100025.72
2023-05-03T22:34:00.175Z,100021.56
2023-05-03T22:36:33.732Z,100024.16
2023-05-03T22:39:08.273Z,100022.28
2023-05-03T22:41:41.401Z,100014.88
2023-05-03T22:44:14.380Z,100019.03
2023-05-03T22:46:48.004Z,100005.72
2023-05-03T22:49:21.257Z,100000.13
2023-05-03T22:51:54.189Z,99996.34
2023-05-03T22:54:28.853Z,99994.38
2023-05-03T22:57:02.142Z,99995.72
2023-05-03T22:59:34.906Z,99992.72
2023-05-03T23:02:07.618Z,99989.00
2023-05-03T23:04:40.478Z,99986.06
2023-05-03T23:07:13.468Z,99981.69
2023-05-03T23:09:48.502Z,99977.53
2023-05-03T23:12:21.497Z,99975.50
2023-05-03T23:14:54.236Z,99972.75
2023-05-03T23:17:29.047Z,99983.13
2023-05-03T23:20:01.959Z,99969.06
2023-05-03T23:22:34.900Z,99956.66
2023-05-03T23:25:09.803Z,99965.97
2023-05-03T23:27:43.026Z,99950.31
2023-05-03T23:30:16.142Z,99943.13
2023-05-03T23:32:49.795Z,99937.78
2023-05-03T23:35:23.372Z,99937.25
2023-05-03T23:37:56.350Z,99929.56
2023-05-03T23:40:30.453Z,99919.50
2023-05-03T23:43:03.187Z,99923.06
2023-05-03T23:45:35.959Z,99929.66
2023-05-03T23:48:09.106Z,99929.69
2023-05-03T23:50:41.853Z,99930.22
2023-05-03T23:53:14.551Z,99943.47
2023-05-03T23:55:48.764Z,99957.03
2023-05-03T23:58:21.867Z,99946.78
